sensor_id;sensor_type;location;lat;lon;timestamp;pressure;altitude;pressure_sealevel;temperature;humidity
9189;BME280;34313;50.780;6.084;2023-04-28T00:00:20;99166.41;;;10.84;75.98
9189;BME280;34313;50.780;6.084;2023-04-28T00:02:46;99164.69;;;10.83;76.20
9189;BME280;34313;50.780;6.084;2023-04-28T00:05:12;99163.13;;;10.80;77.11
9189;BME280;34313;50.780;6.084;2023-04-28T00:07:38;99166.59;;;10.81;78.29
9189;BME280;34313;50.780;6.084;2023-04-28T00:10:04;99162.72;;;10.86;77.77
9189;BME280;34313;50.780;6.084;2023-04-28T00:12:30;99152.16;;;10.86;77.21
9189;BME280;34313;50.780;6.084;2023-04-28T00:14:56;99142.69;;;10.84;76.97
9189;BME280;34313;50.780;6.084;2023-04-28T00:17:21;99141.63;;;10.86;77.38
9189;BME280;34313;50.780;6.084;2023-04-28T00:19:46;99150.69;;;10.82;78.61
9189;BME280;34313;50.780;6.084;2023-04-28T00:22:12;99147.94;;;10.84;79.58
9189;BME280;34313;50.780;6.084;2023-04-28T00:24:37;99142.69;;;10.84;80.52
9189;BME280;34313;50.780;6.084;2023-04-28T00:27:02;99133.91;;;10.83;81.19
9189;BME280;34313;50.780;6.084;2023-04-28T00:29:28;99134.53;;;10.87;82.13
9189;BME280;34313;50.780;6.084;2023-04-28T00:31:53;99132.44;;;10.92;83.01
9189;BME280;34313;50.780;6.084;2023-04-28T00:34:19;99132.44;;;10.92;84.84
9189;BME280;34313;50.780;6.084;2023-04-28T00:36:44;99132.44;;;10.92;85.26
9189;BME280;34313;50.780;6.084;2023-04-28T00:39:09;99129.72;;;10.93;85.83
9189;BME280;34313;50.780;6.084;2023-04-28T00:41:35;99130.06;;;11.02;86.44
9189;BME280;34313;50.780;6.084;2023-04-28T00:44:00;99121.97;;;11.05;86.82
9189;BME280;34313;50.780;6.084;2023-04-28T00:46:28;99121.97;;;11.05;87.20
9189;BME280;34313;50.780;6.084;2023-04-28T00:48:54;99112.44;;;11.02;87.87
9189;BME280;34313;50.780;6.084;2023-04-28T00:51:20;99116.88;;;11.02;89.00
9189;BME280;34313;50.780;6.084;2023-04-28T00:53:46;99114.25;;;11.02;89.29
9189;BME280;34313;50.780;6.084;2023-04-28T00:56:12;99112.44;;;11.02;90.06
9189;BME280;34313;50.780;6.084;2023-04-28T00:58:37;99107.81;;;11.06;90.39
9189;BME280;34313;50.780;6.084;2023-04-28T01:01:07;99100.88;;;11.05;91.54
9189;BME280;34313;50.780;6.084;2023-04-28T01:03:35;99096.31;;;11.07;92.27
9189;BME280;34313;50.780;6.084;2023-04-28T01:06:03;99098.00;;;11.08;94.14
9189;BME280;34313;50.780;6.084;2023-04-28T01:08:30;99096.31;;;11.07;93.58
9189;BME280;34313;50.780;6.084;2023-04-28T01:10:55;99091.25;;;11.04;94.20
9189;BME280;34313;50.780;6.084;2023-04-28T01:13:21;99096.53;;;11.04;94.42
9189;BME280;34313;50.780;6.084;2023-04-28T01:15:46;99093.88;;;11.04;95.76
9189;BME280;34313;50.780;6.084;2023-04-28T01:18:11;99092.31;;;11.01;95.39
9189;BME280;34313;50.780;6.084;2023-04-28T01:20:37;99097.50;;;11.03;95.26
9189;BME280;34313;50.780;6.084;2023-04-28T01:23:03;99098.97;;;11.07;94.78
9189;BME280;34313;50.780;6.084;2023-04-28T01:25:28;99100.00;;;11.04;94.90
9189;BME280;34313;50.780;6.084;2023-04-28T01:27:53;99098.13;;;11.06;94.89
9189;BME280;34313;50.780;6.084;2023-04-28T01:30:19;99091.97;;;11.06;95.32
9189;BME280;34313;50.780;6.084;2023-04-28T01:32:45;99085.56;;;11.10;95.25
9189;BME280;34313;50.780;6.084;2023-04-28T01:35:10;99094.22;;;11.12;96.07
9189;BME280;34313;50.780;6.084;2023-04-28T01:37:35;99097.59;;;11.14;97.26
9189;BME280;34313;50.780;6.084;2023-04-28T01:40:01;99098.44;;;11.14;98.96
9189;BME280;34313;50.780;6.084;2023-04-28T01:42:26;99096.75;;;11.13;99.87
9189;BME280;34313;50.780;6.084;2023-04-28T01:44:51;99090.63;;;11.13;100.00
9189;BME280;34313;50.780;6.084;2023-04-28T01:47:17;99089.78;;;11.12;100.00
9189;BME280;34313;50.780;6.084;2023-04-28T01:49:42;99084.50;;;11.12;100.00
9189;BME280;34313;50.780;6.084;2023-04-28T01:52:07;99079.34;;;11.11;100.00
9189;BME280;34313;50.780;6.084;2023-04-28T01:54:33;99078.94;;;11.17;100.00
9189;BME280;34313;50.780;6.084;2023-04-28T01:56:58;99072.81;;;11.16;100.00
9189;BME280;34313;50.780;6.084;2023-04-28T01:59:23;99081.59;;;11.17;100.00
9189;BME280;34313;50.780;6.084;2023-04-28T02:01:49;99077.66;;;11.10;100.00
9189;BME280;34313;50.780;6.084;2023-04-28T02:04:14;99067.69;;;10.88;100.00
9189;BME280;34313;50.780;6.084;2023-04-28T02:06:39;99068.34;;;10.91;100.00
9189;BME280;34313;50.780;6.084;2023-04-28T02:09:05;99068.25;;;11.06;100.00
9189;BME280;34313;50.780;6.084;2023-04-28T02:11:30;99064.78;;;11.05;100.00
9189;BME280;34313;50.780;6.084;2023-04-28T02:13:55;99061.31;;;11.05;100.00
9189;BME280;34313;50.780;6.084;2023-04-28T02:16:21;99059.50;;;11.05;100.00
9189;BME280;34313;50.780;6.084;2023-04-28T02:18:46;99058.66;;;11.05;100.00
9189;BME280;34313;50.780;6.084;2023-04-28T02:21:11;99060.22;;;10.94;100.00
9189;BME280;34313;50.780;6.084;2023-04-28T02:23:38;99067.31;;;10.94;100.00
9189;BME280;34313;50.780;6.084;2023-04-28T02:26:03;99061.25;;;10.92;100.00
9189;BME280;34313;50.780;6.084;2023-04-28T02:28:29;99049.25;;;10.88;100.00
9189;BME280;34313;50.780;6.084;2023-04-28T02:31:05;99055.34;;;10.88;100.00
9189;BME280;34313;50.780;6.084;2023-04-28T02:33:31;99059.25;;;10.95;100.00
9189;BME280;34313;50.780;6.084;2023-04-28T02:36:00;99055.16;;;10.91;100.00
9189;BME280;34313;50.780;6.084;2023-04-28T02:38:26;99057.69;;;10.93;100.00
9189;BME280;34313;50.780;6.084;2023-04-28T02:41:05;99063.06;;;10.91;100.00
9189;BME280;34313;50.780;6.084;2023-04-28T02:43:31;99050.94;;;10.89;100.00
9189;BME280;34313;50.780;6.084;2023-04-28T02:45:57;99054.31;;;10.91;100.00
9189;BME280;34313;50.780;6.084;2023-04-28T02:48:23;99041.69;;;10.96;100.00
9189;BME280;34313;50.780;6.084;2023-04-28T02:50:48;99046.63;;;11.01;100.00
9189;BME280;34313;50.780;6.084;2023-04-28T02:53:14;99048.13;;;11.05;100.00
9189;BME280;34313;50.780;6.084;2023-04-28T02:55:40;99040.94;;;11.07;100.00
9189;BME280;34313;50.780;6.084;2023-04-28T02:58:05;99034.69;;;11.08;100.00
9189;BME280;34313;50.780;6.084;2023-04-28T03:00:31;99031.75;;;11.12;100.00
9189;BME280;34313;50.780;6.084;2023-04-28T03:02:56;99024.16;;;11.08;100.00
9189;BME280;34313;50.780;6.084;2023-04-28T03:05:21;99018.88;;;11.08;100.00
9189;BME280;34313;50.780;6.084;2023-04-28T03:07:47;99016.25;;;11.08;100.00
9189;BME280;34313;50.780;6.084;2023-04-28T03:10:12;99005.94;;;11.05;100.00
9189;BME280;34313;50.780;6.084;2023-04-28T03:12:37;99007.16;;;10.99;100.00
9189;BME280;34313;50.780;6.084;2023-04-28T03:15:03;98989.25;;;11.04;100.00
9189;BME280;34313;50.780;6.084;2023-04-28T03:17:28;99002.97;;;10.96;100.00
9189;BME280;34313;50.780;6.084;2023-04-28T03:19:53;98990.72;;;10.95;100.00
9189;BME280;34313;50.780;6.084;2023-04-28T03:22:19;98991.25;;;11.01;100.00
9189;BME280;34313;50.780;6.084;2023-04-28T03:24:45;98983.88;;;10.93;100.00
9189;BME280;34313;50.780;6.084;2023-04-28T03:27:10;98969.84;;;10.92;100.00
9189;BME280;34313;50.780;6.084;2023-04-28T03:29:35;98953.16;;;10.92;100.00
9189;BME280;34313;50.780;6.084;2023-04-28T03:32:01;98964.56;;;10.92;100.00
9189;BME280;34313;50.780;6.084;2023-04-28T03:34:26;98964.97;;;10.86;100.00
9189;BME280;34313;50.780;6.084;2023-04-28T03:36:51;98964.25;;;10.84;100.00
9189;BME280;34313;50.780;6.084;2023-04-28T03:39:17;98958.88;;;10.86;100.00
9189;BME280;34313;50.780;6.084;2023-04-28T03:41:42;98931.88;;;10.95;100.00
9189;BME280;34313;50.780;6.084;2023-04-28T03:44:08;98911.84;;;10.92;100.00
9189;BME280;34313;50.780;6.084;2023-04-28T03:46:33;98909.09;;;10.94;100.00
9189;BME280;34313;50.780;6.084;2023-04-28T03:48:59;98904.88;;;10.91;100.00
9189;BME280;34313;50.780;6.084;2023-04-28T03:51:26;98925.66;;;10.96;100.00
9189;BME280;34313;50.780;6.084;2023-04-28T03:53:52;98945.34;;;10.90;100.00
9189;BME280;34313;50.780;6.084;2023-04-28T03:56:17;98937.16;;;10.82;100.00
9189;BME280;34313;50.780;6.084;2023-04-28T03:58:42;98934.94;;;10.89;100.00
9189;BME280;34313;50.780;6.084;2023-04-28T04:01:08;98935.88;;;10.88;100.00
9189;BME280;34313;50.780;6.084;2023-04-28T04:03:33;98936.50;;;10.91;100.00
9189;BME280;34313;50.780;6.084;2023-04-28T04:05:58;98939.34;;;10.88;100.00
9189;BME280;34313;50.780;6.084;2023-04-28T04:08:24;98937.56;;;10.89;100.00
9189;BME280;34313;50.780;6.084;2023-04-28T04:10:49;98959.94;;;10.96;100.00
9189;BME280;34313;50.780;6.084;2023-04-28T04:13:15;98956.56;;;10.94;100.00
9189;BME280;34313;50.780;6.084;2023-04-28T04:15:40;98965.94;;;10.98;100.00
9189;BME280;34313;50.780;6.084;2023-04-28T04:18:06;98968.88;;;10.93;100.00
9189;BME280;34313;50.780;6.084;2023-04-28T04:20:31;98963.41;;;10.96;100.00
9189;BME280;34313;50.780;6.084;2023-04-28T04:22:56;98961.59;;;10.97;100.00
9189;BME280;34313;50.780;6.084;2023-04-28T04:25:21;98953.50;;;10.87;100.00
9189;BME280;34313;50.780;6.084;2023-04-28T04:27:47;98957.38;;;10.82;100.00
9189;BME280;34313;50.780;6.084;2023-04-28T04:30:13;98968.34;;;10.88;100.00
9189;BME280;34313;50.780;6.084;2023-04-28T04:32:38;98967.28;;;10.78;100.00
9189;BME280;34313;50.780;6.084;2023-04-28T04:35:04;98967.28;;;10.78;100.00
9189;BME280;34313;50.780;6.084;2023-04-28T04:37:29;98962.44;;;10.85;100.00
9189;BME280;34313;50.780;6.084;2023-04-28T04:39:54;98970.16;;;10.88;100.00
9189;BME280;34313;50.780;6.084;2023-04-28T04:42:20;98972.06;;;10.86;100.00
9189;BME280;34313;50.780;6.084;2023-04-28T04:44:45;98974.25;;;10.79;100.00
9189;BME280;34313;50.780;6.084;2023-04-28T04:47:10;98980.78;;;10.86;100.00
9189;BME280;34313;50.780;6.084;2023-04-28T04:49:36;98969.53;;;10.84;100.00
9189;BME280;34313;50.780;6.084;2023-04-28T04:52:01;98964.25;;;10.84;100.00
9189;BME280;34313;50.780;6.084;2023-04-28T04:54:27;98970.69;;;10.93;100.00
9189;BME280;34313;50.780;6.084;2023-04-28T04:56:54;98946.75;;;11.09;100.00
9189;BME280;34313;50.780;6.084;2023-04-28T04:59:19;98949.91;;;11.14;100.00
9189;BME280;34313;50.780;6.084;2023-04-28T05:01:44;98961.94;;;11.05;100.00
9189;BME280;34313;50.780;6.084;2023-04-28T05:04:10;98960.13;;;11.06;100.00
9189;BME280;34313;50.780;6.084;2023-04-28T05:06:35;98962.13;;;11.02;100.00
9189;BME280;34313;50.780;6.084;2023-04-28T05:09:01;98957.59;;;11.04;100.00
9189;BME280;34313;50.780;6.084;2023-04-28T05:11:26;98947.47;;;11.11;100.00
9189;BME280;34313;50.780;6.084;2023-04-28T05:13:51;98949.47;;;11.20;100.00
9189;BME280;34313;50.780;6.084;2023-04-28T05:16:17;98954.44;;;11.25;100.00
9189;BME280;34313;50.780;6.084;2023-04-28T05:18:42;98944.19;;;11.33;100.00
9189;BME280;34313;50.780;6.084;2023-04-28T05:21:07;98949.53;;;11.44;100.00
9189;BME280;34313;50.780;6.084;2023-04-28T05:23:38;98939.84;;;11.45;100.00
9189;BME280;34313;50.780;6.084;2023-04-28T05:26:03;98941.09;;;11.52;100.00
9189;BME280;34313;50.780;6.084;2023-04-28T05:28:29;98933.56;;;11.59;100.00
9189;BME280;34313;50.780;6.084;2023-04-28T05:30:55;98937.34;;;11.67;100.00
9189;BME280;34313;50.780;6.084;2023-04-28T05:33:21;98936.13;;;11.84;100.00
9189;BME280;34313;50.780;6.084;2023-04-28T05:35:48;98937.31;;;11.80;100.00
9189;BME280;34313;50.780;6.084;2023-04-28T05:38:13;98948.38;;;11.85;100.00
9189;BME280;34313;50.780;6.084;2023-04-28T05:40:38;98935.72;;;11.90;100.00
9189;BME280;34313;50.780;6.084;2023-04-28T05:43:04;98936.59;;;12.02;100.00
9189;BME280;34313;50.780;6.084;2023-04-28T05:45:29;98937.28;;;12.17;100.00
9189;BME280;34313;50.780;6.084;2023-04-28T05:47:55;98952.00;;;12.33;100.00
9189;BME280;34313;50.780;6.084;2023-04-28T05:50:20;98939.91;;;12.41;100.00
9189;BME280;34313;50.780;6.084;2023-04-28T05:52:45;98954.06;;;12.40;100.00
9189;BME280;34313;50.780;6.084;2023-04-28T05:55:11;98957.66;;;12.39;100.00
9189;BME280;34313;50.780;6.084;2023-04-28T05:57:36;98945.03;;;12.32;100.00
9189;BME280;34313;50.780;6.084;2023-04-28T06:00:02;98952.75;;;12.35;100.00
9189;BME280;34313;50.780;6.084;2023-04-28T06:02:28;98945.88;;;12.32;100.00
9189;BME280;34313;50.780;6.084;2023-04-28T06:04:53;98953.50;;;12.48;100.00
9189;BME280;34313;50.780;6.084;2023-04-28T06:07:18;98967.47;;;12.61;100.00
9189;BME280;34313;50.780;6.084;2023-04-28T06:09:44;98958.28;;;12.78;100.00
9189;BME280;34313;50.780;6.084;2023-04-28T06:12:09;98959.28;;;13.00;100.00
9189;BME280;34313;50.780;6.084;2023-04-28T06:14:34;98951.50;;;13.10;100.00
9189;BME280;34313;50.780;6.084;2023-04-28T06:17:02;98960.25;;;13.21;100.00
9189;BME280;34313;50.780;6.084;2023-04-28T06:19:27;98954.50;;;13.28;100.00
9189;BME280;34313;50.780;6.084;2023-04-28T06:21:53;98944.66;;;13.41;100.00
9189;BME280;34313;50.780;6.084;2023-04-28T06:24:18;98951.63;;;13.65;100.00
9189;BME280;34313;50.780;6.084;2023-04-28T06:26:43;98959.41;;;13.77;100.00
9189;BME280;34313;50.780;6.084;2023-04-28T06:29:09;98948.34;;;13.84;100.00
9189;BME280;34313;50.780;6.084;2023-04-28T06:31:34;98958.41;;;13.90;100.00
9189;BME280;34313;50.780;6.084;2023-04-28T06:34:00;98959.16;;;13.80;100.00
9189;BME280;34313;50.780;6.084;2023-04-28T06:36:25;98948.47;;;13.82;100.00
9189;BME280;34313;50.780;6.084;2023-04-28T06:38:50;98960.00;;;13.81;100.00
9189;BME280;34313;50.780;6.084;2023-04-28T06:41:16;98954.00;;;13.79;100.00
9189;BME280;34313;50.780;6.084;2023-04-28T06:43:42;98943.47;;;14.00;100.00
9189;BME280;34313;50.780;6.084;2023-04-28T06:46:07;98948.75;;;14.11;100.00
9189;BME280;34313;50.780;6.084;2023-04-28T06:48:32;98958.47;;;14.22;100.00
9189;BME280;34313;50.780;6.084;2023-04-28T06:50:58;98962.31;;;14.18;100.00
9189;BME280;34313;50.780;6.084;2023-04-28T06:53:23;98946.81;;;14.13;100.00
9189;BME280;34313;50.780;6.084;2023-04-28T06:55:48;98957.78;;;14.09;100.00
9189;BME280;34313;50.780;6.084;2023-04-28T06:58:14;98959.50;;;13.98;100.00
9189;BME280;34313;50.780;6.084;2023-04-28T07:00:39;98967.06;;;14.03;100.00
9189;BME280;34313;50.780;6.084;2023-04-28T07:03:05;98963.19;;;14.07;100.00
9189;BME280;34313;50.780;6.084;2023-04-28T07:05:31;98966.66;;;14.19;100.00
9189;BME280;34313;50.780;6.084;2023-04-28T07:07:57;98967.84;;;14.26;100.00
9189;BME280;34313;50.780;6.084;2023-04-28T07:10:23;98969.47;;;14.38;100.00
9189;BME280;34313;50.780;6.084;2023-04-28T07:12:49;98954.03;;;14.44;100.00
9189;BME280;34313;50.780;6.084;2023-04-28T07:15:15;98957.84;;;14.51;100.00
9189;BME280;34313;50.780;6.084;2023-04-28T07:17:40;98954.66;;;14.68;100.00
9189;BME280;34313;50.780;6.084;2023-04-28T07:20:06;98958.88;;;14.92;100.00
9189;BME280;34313;50.780;6.084;2023-04-28T07:22:32;98948.09;;;15.15;100.00
9189;BME280;34313;50.780;6.084;2023-04-28T07:24:57;98955.84;;;15.27;100.00
9189;BME280;34313;50.780;6.084;2023-04-28T07:27:22;98968.91;;;15.40;100.00
9189;BME280;34313;50.780;6.084;2023-04-28T07:29:48;98958.00;;;15.43;100.00
9189;BME280;34313;50.780;6.084;2023-04-28T07:32:13;98960.03;;;15.61;100.00
9189;BME280;34313;50.780;6.084;2023-04-28T07:34:38;98959.72;;;15.85;100.00
9189;BME280;34313;50.780;6.084;2023-04-28T07:37:04;98962.38;;;15.95;100.00
9189;BME280;34313;50.780;6.084;2023-04-28T07:39:30;98964.91;;;15.96;100.00
9189;BME280;34313;50.780;6.084;2023-04-28T07:41:55;98964.38;;;16.12;100.00
9189;BME280;34313;50.780;6.084;2023-04-28T07:44:22;98956.56;;;16.20;100.00
9189;BME280;34313;50.780;6.084;2023-04-28T07:46:47;98960.19;;;16.19;100.00
9189;BME280;34313;50.780;6.084;2023-04-28T07:49:13;98960.75;;;16.23;100.00
9189;BME280;34313;50.780;6.084;2023-04-28T07:51:38;98960.31;;;16.08;100.00
9189;BME280;34313;50.780;6.084;2023-04-28T07:54:03;98960.28;;;15.98;100.00
9189;BME280;34313;50.780;6.084;2023-04-28T07:56:29;98964.06;;;15.96;100.00
9189;BME280;34313;50.780;6.084;2023-04-28T07:58:54;98958.19;;;16.02;100.00
9189;BME280;34313;50.780;6.084;2023-04-28T08:01:19;98959.19;;;16.01;100.00
9189;BME280;34313;50.780;6.084;2023-04-28T08:03:45;98959.59;;;15.96;100.00
9189;BME280;34313;50.780;6.084;2023-04-28T08:06:11;98967.44;;;16.07;100.00
9189;BME280;34313;50.780;6.084;2023-04-28T08:08:37;98967.59;;;16.06;100.00
9189;BME280;34313;50.780;6.084;2023-04-28T08:11:02;98966.34;;;16.10;100.00
9189;BME280;34313;50.780;6.084;2023-04-28T08:13:28;98969.56;;;16.14;100.00
9189;BME280;34313;50.780;6.084;2023-04-28T08:15:53;98980.19;;;16.14;100.00
9189;BME280;34313;50.780;6.084;2023-04-28T08:18:20;98982.16;;;16.12;100.00
9189;BME280;34313;50.780;6.084;2023-04-28T08:20:46;98980.63;;;16.29;100.00
9189;BME280;34313;50.780;6.084;2023-04-28T08:23:11;98974.75;;;16.54;100.00
9189;BME280;34313;50.780;6.084;2023-04-28T08:25:36;98968.31;;;16.76;100.00
9189;BME280;34313;50.780;6.084;2023-04-28T08:28:02;98978.41;;;16.92;100.00
9189;BME280;34313;50.780;6.084;2023-04-28T08:30:28;98986.91;;;17.06;100.00
9189;BME280;34313;50.780;6.084;2023-04-28T08:32:54;98987.91;;;17.05;100.00
9189;BME280;34313;50.780;6.084;2023-04-28T08:35:19;98985.19;;;17.14;100.00
9189;BME280;34313;50.780;6.084;2023-04-28T08:37:44;98986.88;;;17.25;100.00
9189;BME280;34313;50.780;6.084;2023-04-28T08:40:10;98994.13;;;17.33;100.00
9189;BME280;34313;50.780;6.084;2023-04-28T08:42:36;98992.88;;;17.27;100.00
9189;BME280;34313;50.780;6.084;2023-04-28T08:45:03;98999.50;;;17.04;100.00
9189;BME280;34313;50.780;6.084;2023-04-28T08:47:37;98998.28;;;16.78;100.00
9189;BME280;34313;50.780;6.084;2023-04-28T08:50:04;99000.78;;;16.51;100.00
9189;BME280;34313;50.780;6.084;2023-04-28T08:52:31;98998.25;;;16.30;100.00
9189;BME280;34313;50.780;6.084;2023-04-28T08:54:58;99002.28;;;16.04;100.00
9189;BME280;34313;50.780;6.084;2023-04-28T08:57:34;99000.41;;;15.85;100.00
9189;BME280;34313;50.780;6.084;2023-04-28T09:00:02;98999.53;;;15.75;100.00
9189;BME280;34313;50.780;6.084;2023-04-28T09:02:28;99005.38;;;15.69;100.00
9189;BME280;34313;50.780;6.084;2023-04-28T09:04:53;98997.34;;;15.59;100.00
9189;BME280;34313;50.780;6.084;2023-04-28T09:07:18;99002.72;;;15.69;100.00
9189;BME280;34313;50.780;6.084;2023-04-28T09:09:43;98999.28;;;15.78;100.00
9189;BME280;34313;50.780;6.084;2023-04-28T09:12:10;98999.63;;;16.14;100.00
9189;BME280;34313;50.780;6.084;2023-04-28T09:14:36;98991.84;;;16.52;100.00
9189;BME280;34313;50.780;6.084;2023-04-28T09:17:09;98987.91;;;16.95;100.00
9189;BME280;34313;50.780;6.084;2023-04-28T09:19:36;98985.59;;;17.29;100.00
9189;BME280;34313;50.780;6.084;2023-04-28T09:22:03;98990.84;;;17.49;100.00
9189;BME280;34313;50.780;6.084;2023-04-28T09:24:34;98989.81;;;17.60;100.00
9189;BME280;34313;50.780;6.084;2023-04-28T09:27:02;98983.78;;;17.57;100.00
9189;BME280;34313;50.780;6.084;2023-04-28T09:29:29;98988.38;;;17.37;100.00
9189;BME280;34313;50.780;6.084;2023-04-28T09:32:21;98992.91;;;17.17;100.00
9189;BME280;34313;50.780;6.084;2023-04-28T09:34:49;98988.31;;;17.10;100.00
9189;BME280;34313;50.780;6.084;2023-04-28T09:37:20;98994.47;;;17.10;100.00
9189;BME280;34313;50.780;6.084;2023-04-28T09:39:46;98989.28;;;17.09;100.00
9189;BME280;34313;50.780;6.084;2023-04-28T09:45:04;98984.91;;;17.27;100.00
9189;BME280;34313;50.780;6.084;2023-04-28T09:47:31;98987.28;;;17.58;100.00
9189;BME280;34313;50.780;6.084;2023-04-28T09:49:58;98985.19;;;18.17;99.23
9189;BME280;34313;50.780;6.084;2023-04-28T09:52:25;98991.81;;;19.03;95.78
9189;BME280;34313;50.780;6.084;2023-04-28T09:54:52;98989.16;;;19.63;90.66
9189;BME280;34313;50.780;6.084;2023-04-28T09:57:18;98994.03;;;20.02;85.47
9189;BME280;34313;50.780;6.084;2023-04-28T09:59:48;98982.47;;;20.77;80.00
9189;BME280;34313;50.780;6.084;2023-04-28T10:02:18;98973.78;;;21.96;75.64
9189;BME280;34313;50.780;6.084;2023-04-28T10:04:46;98970.69;;;22.61;70.71
9189;BME280;34313;50.780;6.084;2023-04-28T10:07:13;98972.97;;;22.73;69.34
9189;BME280;34313;50.780;6.084;2023-04-28T10:09:40;98970.94;;;23.28;67.94
9189;BME280;34313;50.780;6.084;2023-04-28T10:12:12;98977.00;;;23.45;66.87
9189;BME280;34313;50.780;6.084;2023-04-28T10:14:38;98967.53;;;23.64;65.65
9189;BME280;34313;50.780;6.084;2023-04-28T10:17:05;98974.97;;;23.91;63.88
9189;BME280;34313;50.780;6.084;2023-04-28T10:19:32;98973.72;;;24.52;60.65
9189;BME280;34313;50.780;6.084;2023-04-28T10:27:20;98959.06;;;25.04;58.03
9189;BME280;34313;50.780;6.084;2023-04-28T10:29:46;98959.63;;;24.93;58.15
9189;BME280;34313;50.780;6.084;2023-04-28T10:32:22;98958.72;;;24.43;59.46
9189;BME280;34313;50.780;6.084;2023-04-28T10:34:50;98966.69;;;24.72;59.46
9189;BME280;34313;50.780;6.084;2023-04-28T10:37:16;98960.88;;;24.97;57.98
9189;BME280;34313;50.780;6.084;2023-04-28T10:42:54;98947.22;;;24.99;57.83
9189;BME280;34313;50.780;6.084;2023-04-28T10:48:07;98945.63;;;23.82;60.28
9189;BME280;34313;50.780;6.084;2023-04-28T10:50:32;98950.09;;;23.15;60.67
9189;BME280;34313;50.780;6.084;2023-04-28T10:53:02;98944.41;;;22.72;62.21
9189;BME280;34313;50.780;6.084;2023-04-28T10:55:33;98956.03;;;22.72;62.92
9189;BME280;34313;50.780;6.084;2023-04-28T11:00:44;98943.44;;;22.88;61.58
9189;BME280;34313;50.780;6.084;2023-04-28T11:06:34;98939.13;;;23.91;58.00
9189;BME280;34313;50.780;6.084;2023-04-28T11:16:57;98930.50;;;23.66;56.55
9189;BME280;34313;50.780;6.084;2023-04-28T11:19:49;98928.88;;;24.01;55.97
9189;BME280;34313;50.780;6.084;2023-04-28T11:22:20;98932.25;;;24.25;54.60
9189;BME280;34313;50.780;6.084;2023-04-28T11:24:57;98931.03;;;24.27;55.42
9189;BME280;34313;50.780;6.084;2023-04-28T11:27:24;98928.41;;;24.34;54.31
9189;BME280;34313;50.780;6.084;2023-04-28T11:29:49;98931.59;;;24.44;53.50
9189;BME280;34313;50.780;6.084;2023-04-28T11:32:14;98928.06;;;24.22;53.75
9189;BME280;34313;50.780;6.084;2023-04-28T11:34:40;98922.66;;;24.44;53.74
9189;BME280;34313;50.780;6.084;2023-04-28T11:37:06;98922.91;;;24.42;54.06
9189;BME280;34313;50.780;6.084;2023-04-28T11:39:33;98920.88;;;24.29;53.22
9189;BME280;34313;50.780;6.084;2023-04-28T11:42:01;98913.19;;;24.05;54.36
9189;BME280;34313;50.780;6.084;2023-04-28T11:44:28;98915.56;;;23.63;55.37
9189;BME280;34313;50.780;6.084;2023-04-28T11:46:59;98911.50;;;23.52;55.88
9189;BME280;34313;50.780;6.084;2023-04-28T11:49:26;98914.75;;;23.63;55.17
9189;BME280;34313;50.780;6.084;2023-04-28T11:51:56;98915.69;;;23.55;55.30
9189;BME280;34313;50.780;6.084;2023-04-28T11:54:26;98913.16;;;23.83;54.97
9189;BME280;34313;50.780;6.084;2023-04-28T11:56:53;98926.75;;;23.96;54.66
9189;BME280;34313;50.780;6.084;2023-04-28T11:59:26;98914.09;;;23.46;55.35
9189;BME280;34313;50.780;6.084;2023-04-28T12:01:56;98914.56;;;23.04;56.64
9189;BME280;34313;50.780;6.084;2023-04-28T12:04:37;98914.25;;;22.84;55.99
9189;BME280;34313;50.780;6.084;2023-04-28T12:07:13;98915.63;;;22.80;56.58
9189;BME280;34313;50.780;6.084;2023-04-28T12:09:41;98913.63;;;22.97;56.54
9189;BME280;34313;50.780;6.084;2023-04-28T12:12:08;98917.41;;;22.88;57.11
9189;BME280;34313;50.780;6.084;2023-04-28T12:14:58;98914.78;;;22.42;57.36
9189;BME280;34313;50.780;6.084;2023-04-28T12:17:30;98914.75;;;22.27;58.03
9189;BME280;34313;50.780;6.084;2023-04-28T12:19:57;98906.53;;;22.20;58.22
9189;BME280;34313;50.780;6.084;2023-04-28T12:22:24;98901.94;;;22.06;58.35
9189;BME280;34313;50.780;6.084;2023-04-28T12:25:07;98901.94;;;22.06;58.88
9189;BME280;34313;50.780;6.084;2023-04-28T12:27:34;98901.63;;;22.32;58.09
9189;BME280;34313;50.780;6.084;2023-04-28T12:30:00;98894.06;;;22.04;57.90
9189;BME280;34313;50.780;6.084;2023-04-28T12:32:41;98897.72;;;22.12;57.69
9189;BME280;34313;50.780;6.084;2023-04-28T12:35:09;98900.03;;;22.15;57.77
9189;BME280;34313;50.780;6.084;2023-04-28T12:37:35;98900.72;;;21.85;58.15
9189;BME280;34313;50.780;6.084;2023-04-28T12:40:03;98892.84;;;21.84;58.31
9189;BME280;34313;50.780;6.084;2023-04-28T12:42:28;98898.56;;;21.81;58.45
9189;BME280;34313;50.780;6.084;2023-04-28T12:44:54;98901.00;;;21.99;58.08
9189;BME280;34313;50.780;6.084;2023-04-28T12:47:19;98895.16;;;22.18;57.41
9189;BME280;34313;50.780;6.084;2023-04-28T12:49:45;98889.19;;;22.31;56.47
9189;BME280;34313;50.780;6.084;2023-04-28T12:52:11;98897.97;;;22.48;55.79
9189;BME280;34313;50.780;6.084;2023-04-28T12:54:36;98899.03;;;22.62;54.88
9189;BME280;34313;50.780;6.084;2023-04-28T12:57:03;98895.53;;;22.91;54.53
9189;BME280;34313;50.780;6.084;2023-04-28T12:59:29;98900.44;;;22.88;54.59
9189;BME280;34313;50.780;6.084;2023-04-28T13:01:55;98906.66;;;22.88;54.42
9189;BME280;34313;50.780;6.084;2023-04-28T13:04:21;98905.44;;;22.76;55.01
9189;BME280;34313;50.780;6.084;2023-04-28T13:06:47;98896.59;;;22.52;55.74
9189;BME280;34313;50.780;6.084;2023-04-28T13:09:13;98903.69;;;22.45;55.73
9189;BME280;34313;50.780;6.084;2023-04-28T13:11:39;98900.88;;;22.15;56.65
9189;BME280;34313;50.780;6.084;2023-04-28T13:14:06;98897.72;;;22.12;57.06
9189;BME280;34313;50.780;6.084;2023-04-28T13:16:31;98905.53;;;22.21;57.30
9189;BME280;34313;50.780;6.084;2023-04-28T13:18:59;98894.13;;;22.19;57.51
9189;BME280;34313;50.780;6.084;2023-04-28T13:21:25;98908.41;;;22.43;57.30
9189;BME280;34313;50.780;6.084;2023-04-28T13:23:53;98910.34;;;22.26;56.09
9189;BME280;34313;50.780;6.084;2023-04-28T13:26:20;98903.22;;;22.18;54.37
9189;BME280;34313;50.780;6.084;2023-04-28T13:28:46;98905.22;;;22.62;53.14